Time;durP1;ratioP1;P1;durP2;ratioP2;P2;SDS_P1;SDS_P2;PMS_P1;PMS_P2;Temp;Humidity;BMP_temperature;BMP_pressure;BME280_temperature;BME280_humidity;BME280_pressure;Samples;Min_cycle;Max_cycle;Signal;HPM_P1;HPM_P2
2023/08/18 00:00:02;;;;;;;2.85;1.55;;;18.30;89.00;;;;;;4900657;29;20063;-88
2023/08/18 00:02:35;;;;;;;2.88;1.88;;;18.30;89.10;;;;;;4916275;29;20075;-89
2023/08/18 00:05:02;;;;;;;2.40;1.58;;;18.30;89.10;;;;;;4916048;29;20131;-89
2023/08/18 00:07:29;;;;;;;2.35;1.20;;;18.30;89.20;;;;;;4900506;29;20386;-89
2023/08/18 00:09:57;;;;;;;3.50;1.40;;;18.30;89.20;;;;;;4896940;29;20462;-88
2023/08/18 00:12:24;;;;;;;2.22;1.33;;;18.30;89.30;;;;;;4881983;29;20147;-89
2023/08/18 00:14:52;;;;;;;2.47;1.40;;;18.30;89.30;;;;;;4883412;29;20120;-89
2023/08/18 00:17:19;;;;;;;2.22;1.40;;;18.30;89.30;;;;;;4909811;29;20057;-89
2023/08/18 00:19:47;;;;;;;1.95;1.35;;;18.30;89.30;;;;;;4897097;29;20067;-89
2023/08/18 00:22:16;;;;;;;2.47;1.40;;;18.30;89.30;;;;;;4900047;29;20095;-88
2023/08/18 00:24:43;;;;;;;2.70;1.85;;;18.20;89.50;;;;;;4900067;29;20044;-89
2023/08/18 00:27:10;;;;;;;2.45;1.50;;;18.20;89.50;;;;;;4899844;29;20430;-89
2023/08/18 00:29:39;;;;;;;2.78;1.52;;;18.20;89.60;;;;;;4897497;29;20045;-89
2023/08/18 00:32:06;;;;;;;2.72;1.40;;;18.20;89.60;;;;;;4892677;29;20055;-88
2023/08/18 00:34:34;;;;;;;3.35;1.50;;;18.20;89.60;;;;;;4893790;29;20084;-88
2023/08/18 00:37:03;;;;;;;2.00;1.00;;;18.20;89.60;;;;;;4885145;29;20072;-89
2023/08/18 00:39:33;;;;;;;2.47;1.40;;;18.20;89.60;;;;;;4898974;29;20052;-89
2023/08/18 00:42:00;;;;;;;2.90;1.15;;;18.20;89.50;;;;;;4861087;29;20049;-84
2023/08/18 00:44:27;;;;;;;2.03;1.20;;;18.20;89.60;;;;;;4910097;29;20048;-84
2023/08/18 00:46:55;;;;;;;2.20;1.20;;;18.20;89.60;;;;;;4902909;29;20132;-84
2023/08/18 00:49:24;;;;;;;1.70;0.85;;;18.20;89.60;;;;;;4911018;29;20489;-84
2023/08/18 00:51:53;;;;;;;2.60;1.33;;;18.20;89.60;;;;;;4884081;29;20131;-83
2023/08/18 00:54:22;;;;;;;3.35;1.63;;;18.20;89.60;;;;;;4883916;29;20457;-84
2023/08/18 00:56:49;;;;;;;3.15;1.40;;;18.20;89.60;;;;;;4907421;29;20194;-84
2023/08/18 00:59:18;;;;;;;2.10;1.10;;;18.20;89.70;;;;;;4878365;29;20048;-84
2023/08/18 01:01:48;;;;;;;2.03;1.05;;;18.20;89.70;;;;;;4868175;29;20520;-83
2023/08/18 01:04:15;;;;;;;2.53;1.08;;;18.20;89.70;;;;;;4892708;29;20048;-84
2023/08/18 01:06:42;;;;;;;2.33;1.20;;;18.20;89.70;;;;;;4895478;29;20108;-84
2023/08/18 01:09:10;;;;;;;2.00;1.15;;;18.20;90.10;;;;;;4882766;29;20139;-84
2023/08/18 01:11:48;;;;;;;2.53;1.20;;;18.10;89.80;;;;;;4902421;29;20570;-84
2023/08/18 01:14:45;;;;;;;2.58;1.05;;;18.10;89.80;;;;;;4882313;29;20048;-84
2023/08/18 01:17:25;;;;;;;3.85;1.40;;;18.10;89.80;;;;;;4907078;29;20052;-84
2023/08/18 01:19:53;;;;;;;2.03;1.15;;;18.10;90.00;;;;;;4900405;29;20060;-84
2023/08/18 01:22:24;;;;;;;3.53;1.50;;;18.10;90.00;;;;;;4915294;29;20063;-84
2023/08/18 01:25:02;;;;;;;2.53;1.45;;;18.10;90.00;;;;;;4903713;29;20466;-84
2023/08/18 01:27:33;;;;;;;2.47;1.38;;;18.10;90.00;;;;;;4896131;29;20045;-84
2023/08/18 01:30:01;;;;;;;3.50;1.55;;;18.00;90.00;;;;;;4903553;29;20084;-84
2023/08/18 01:32:39;;;;;;;2.00;1.15;;;18.00;90.00;;;;;;4851141;29;20501;-84
2023/08/18 01:35:09;;;;;;;2.42;1.48;;;18.00;90.00;;;;;;4907149;29;20497;-84
2023/08/18 01:37:38;;;;;;;2.55;1.45;;;18.00;90.10;;;;;;4877436;29;20147;-88
2023/08/18 01:40:09;;;;;;;2.30;1.15;;;17.90;90.10;;;;;;4901977;29;20552;-89
2023/08/18 01:42:37;;;;;;;2.65;1.63;;;18.00;90.10;;;;;;4915617;29;20052;-89
2023/08/18 01:45:05;;;;;;;2.38;1.48;;;17.90;90.10;;;;;;4916506;29;20040;-88
2023/08/18 01:47:32;;;;;;;2.45;1.50;;;17.90;90.10;;;;;;4910929;29;20103;-87
2023/08/18 01:50:02;;;;;;;3.05;1.52;;;17.90;90.10;;;;;;4902840;29;20056;-88
2023/08/18 01:52:29;;;;;;;2.33;1.33;;;17.90;90.10;;;;;;4903441;29;20479;-89
2023/08/18 01:54:56;;;;;;;2.47;1.23;;;17.90;90.20;;;;;;4897195;29;20151;-89
2023/08/18 01:57:23;;;;;;;2.78;1.27;;;17.90;90.20;;;;;;4883566;29;20044;-88
2023/08/18 01:59:51;;;;;;;2.70;1.30;;;17.90;90.20;;;;;;4884444;29;20060;-88
2023/08/18 02:02:18;;;;;;;3.30;1.13;;;17.90;90.20;;;;;;4882505;29;20052;-84
2023/08/18 02:04:45;;;;;;;2.75;1.40;;;17.90;90.20;;;;;;4883106;29;20045;-84
2023/08/18 02:07:12;;;;;;;3.75;1.73;;;17.90;90.20;;;;;;4884767;29;20556;-88
2023/08/18 02:09:40;;;;;;;3.30;1.25;;;17.90;90.20;;;;;;4881636;29;20456;-88
2023/08/18 02:12:09;;;;;;;1.80;1.02;;;17.90;90.20;;;;;;4917272;29;20040;-88
2023/08/18 02:14:36;;;;;;;3.58;1.77;;;17.90;90.20;;;;;;4917570;29;20553;-89
2023/08/18 02:17:03;;;;;;;2.50;1.42;;;17.80;90.20;;;;;;4902313;29;20045;-89
2023/08/18 02:19:30;;;;;;;2.40;1.20;;;17.80;90.20;;;;;;4886532;29;20071;-89
2023/08/18 02:21:58;;;;;;;2.60;1.30;;;17.90;90.30;;;;;;4900066;29;20078;-89
2023/08/18 02:24:25;;;;;;;2.95;1.45;;;17.80;90.20;;;;;;4888653;29;20045;-89
2023/08/18 02:26:52;;;;;;;2.80;1.38;;;17.80;90.30;;;;;;4896853;29;20052;-89
2023/08/18 02:29:22;;;;;;;2.70;1.60;;;17.80;90.30;;;;;;4907650;29;20053;-89
2023/08/18 02:31:52;;;;;;;1.90;1.20;;;17.80;90.30;;;;;;4897831;29;20041;-89
2023/08/18 02:34:25;;;;;;;2.30;1.13;;;17.80;90.30;;;;;;4879831;29;20056;-89
2023/08/18 02:36:53;;;;;;;2.45;1.50;;;17.80;90.30;;;;;;4899419;29;20048;-88
2023/08/18 02:39:27;;;;;;;2.53;1.40;;;17.80;90.30;;;;;;4898660;29;20053;-88
2023/08/18 02:41:56;;;;;;;2.60;1.58;;;17.80;90.60;;;;;;4851613;29;20051;-89
2023/08/18 02:44:25;;;;;;;3.28;1.42;;;17.80;90.30;;;;;;4902440;29;20040;-88
2023/08/18 02:46:54;;;;;;;2.42;1.25;;;17.80;90.30;;;;;;4887882;29;20052;-89
2023/08/18 02:49:22;;;;;;;2.45;1.10;;;17.80;90.40;;;;;;4896166;29;20048;-88
2023/08/18 02:51:52;;;;;;;3.67;2.20;;;17.80;90.40;;;;;;4887232;29;20052;-89
2023/08/18 02:54:19;;;;;;;2.70;1.58;;;17.80;90.40;;;;;;4868555;29;20055;-88
2023/08/18 02:56:46;;;;;;;2.67;1.45;;;17.80;90.40;;;;;;4887450;29;20478;-89
2023/08/18 02:59:14;;;;;;;3.63;2.17;;;17.80;90.40;;;;;;4912497;29;20052;-89
2023/08/18 03:01:42;;;;;;;2.70;1.65;;;17.80;90.40;;;;;;4886617;29;20056;-88
2023/08/18 03:04:10;;;;;;;3.28;1.85;;;17.80;90.40;;;;;;4901948;29;20107;-89
2023/08/18 03:06:37;;;;;;;3.80;1.98;;;17.80;90.50;;;;;;4902293;29;20481;-88
2023/08/18 03:09:04;;;;;;;3.33;1.95;;;17.70;90.50;;;;;;4908175;29;20103;-88
2023/08/18 03:11:32;;;;;;;5.20;2.35;;;17.70;90.50;;;;;;4902584;29;20044;-90
2023/08/18 03:14:01;;;;;;;3.35;2.00;;;17.70;90.60;;;;;;4917716;29;20096;-88
2023/08/18 03:16:29;;;;;;;3.00;1.73;;;17.70;90.50;;;;;;4917779;29;20477;-89
2023/08/18 03:18:57;;;;;;;4.13;2.38;;;17.70;90.50;;;;;;4917653;29;20054;-88
2023/08/18 03:21:24;;;;;;;3.40;2.33;;;17.70;90.60;;;;;;4900178;29;20052;-89
2023/08/18 03:23:52;;;;;;;4.97;2.63;;;17.70;90.60;;;;;;4883124;29;20048;-89
2023/08/18 03:26:19;;;;;;;3.65;2.30;;;17.70;90.60;;;;;;4880315;29;20073;-89
2023/08/18 03:28:47;;;;;;;3.88;2.33;;;17.70;90.60;;;;;;4914093;29;20048;-88
2023/08/18 03:31:14;;;;;;;3.85;2.03;;;17.70;90.50;;;;;;4901717;29;20059;-89
2023/08/18 03:33:42;;;;;;;3.88;2.17;;;17.80;90.60;;;;;;4883191;29;20056;-88
2023/08/18 03:36:13;;;;;;;3.90;2.38;;;17.80;90.60;;;;;;4877159;29;20052;-87
2023/08/18 03:38:40;;;;;;;4.35;2.63;;;17.80;90.60;;;;;;4885613;29;20049;-85
2023/08/18 03:41:08;;;;;;;4.28;2.30;;;17.80;90.60;;;;;;4899688;29;20075;-86
2023/08/18 03:43:35;;;;;;;4.65;2.67;;;17.70;90.60;;;;;;4877548;29;20057;-89
2023/08/18 03:46:25;;;;;;;4.40;2.60;;;17.70;90.60;;;;;;4896695;29;20107;-89
2023/08/18 03:48:58;;;;;;;5.30;2.80;;;17.70;90.60;;;;;;4867213;29;20513;-87
2023/08/18 03:51:27;;;;;;;4.47;2.35;;;17.70;90.70;;;;;;4901783;29;20043;-88
2023/08/18 03:53:55;;;;;;;4.30;2.55;;;17.70;90.70;;;;;;4885953;29;20055;-89
2023/08/18 03:56:26;;;;;;;5.00;2.70;;;17.70;90.70;;;;;;4913690;29;20072;-88
2023/08/18 03:58:54;;;;;;;5.07;2.75;;;17.70;90.70;;;;;;4901132;29;20051;-88
2023/08/18 04:01:21;;;;;;;5.03;2.90;;;17.70;90.70;;;;;;4896187;29;20072;-88
2023/08/18 04:03:50;;;;;;;5.03;3.00;;;17.70;90.70;;;;;;4899852;29;20056;-88
2023/08/18 04:06:17;;;;;;;6.30;3.45;;;17.70;90.70;;;;;;4913543;29;20413;-88
2023/08/18 04:08:44;;;;;;;5.35;2.65;;;17.70;90.70;;;;;;4886231;29;20509;-89
2023/08/18 04:11:14;;;;;;;6.07;3.70;;;17.70;90.80;;;;;;4870251;29;20523;-88
2023/08/18 04:13:47;;;;;;;4.15;2.50;;;17.70;90.80;;;;;;4898336;29;20083;-89
2023/08/18 04:16:15;;;;;;;5.95;3.35;;;17.70;90.80;;;;;;4848512;29;20385;-88
2023/08/18 04:18:42;;;;;;;5.28;3.38;;;17.70;90.80;;;;;;4893741;29;20057;-88
2023/08/18 04:21:09;;;;;;;6.85;3.95;;;17.70;90.80;;;;;;4874383;29;20057;-89
2023/08/18 04:23:37;;;;;;;5.88;3.53;;;17.70;90.80;;;;;;4883685;29;20048;-88
2023/08/18 04:26:04;;;;;;;5.40;3.95;;;17.70;90.80;;;;;;4894217;29;20486;-88
2023/08/18 04:28:31;;;;;;;5.35;3.33;;;17.70;90.80;;;;;;4882406;29;20128;-88
2023/08/18 04:31:00;;;;;;;5.75;3.35;;;17.70;90.90;;;;;;4882320;29;20139;-89
2023/08/18 04:33:37;;;;;;;5.63;3.40;;;17.70;90.90;;;;;;4868453;29;20052;-89
2023/08/18 04:36:05;;;;;;;7.03;3.67;;;17.70;90.90;;;;;;4867037;29;20503;-89
2023/08/18 04:38:32;;;;;;;6.38;4.20;;;17.70;90.90;;;;;;4882447;29;20143;-89
2023/08/18 04:41:02;;;;;;;5.93;3.72;;;17.60;90.90;;;;;;4882301;29;20053;-89
2023/08/18 04:43:33;;;;;;;6.18;3.90;;;17.70;90.90;;;;;;4866957;29;20059;-89
2023/08/18 04:46:01;;;;;;;7.97;4.35;;;17.60;91.00;;;;;;4882428;29;20443;-89
2023/08/18 04:48:31;;;;;;;6.45;4.47;;;17.60;91.00;;;;;;4882454;29;20130;-88
2023/08/18 04:50:58;;;;;;;5.53;3.88;;;17.60;91.00;;;;;;4882509;29;20045;-88
2023/08/18 04:53:26;;;;;;;6.28;4.18;;;17.60;91.10;;;;;;4882529;29;20048;-88
2023/08/18 04:55:53;;;;;;;7.07;3.90;;;17.60;91.10;;;;;;4910153;29;20120;-89
2023/08/18 04:58:20;;;;;;;5.88;4.22;;;17.60;91.00;;;;;;4904455;29;20116;-89
2023/08/18 05:00:47;;;;;;;8.70;4.68;;;17.60;91.00;;;;;;4921485;29;20545;-89
2023/08/18 05:03:16;;;;;;;7.35;4.78;;;17.60;91.00;;;;;;4905135;29;20060;-90
2023/08/18 05:05:59;;;;;;;8.75;5.28;;;17.70;91.10;;;;;;4887581;29;20072;-89
2023/08/18 05:08:27;;;;;;;7.50;4.70;;;17.70;91.00;;;;;;4872637;29;20088;-89
2023/08/18 05:11:04;;;;;;;7.40;4.63;;;17.60;91.00;;;;;;4887430;29;20481;-89
2023/08/18 05:13:35;;;;;;;7.50;4.72;;;17.70;91.00;;;;;;4902684;29;20080;-88
2023/08/18 05:16:03;;;;;;;6.50;4.70;;;17.70;91.10;;;;;;4901446;29;20060;-89
2023/08/18 05:18:31;;;;;;;8.05;5.30;;;17.70;91.10;;;;;;4891371;29;20047;-88
2023/08/18 05:21:04;;;;;;;6.22;4.35;;;17.60;91.10;;;;;;4867282;29;20104;-89
2023/08/18 05:23:31;;;;;;;6.97;4.13;;;17.70;91.10;;;;;;4899189;29;20044;-87
2023/08/18 05:26:02;;;;;;;6.97;4.28;;;17.70;91.10;;;;;;4885307;29;20052;-89
2023/08/18 05:28:29;;;;;;;8.27;4.95;;;17.70;91.10;;;;;;4900289;29;20056;-90
2023/08/18 05:30:57;;;;;;;6.07;4.10;;;17.80;91.10;;;;;;4885005;29;20059;-88
2023/08/18 05:33:24;;;;;;;9.40;4.85;;;17.80;91.00;;;;;;4882333;29;20045;-88
2023/08/18 05:35:52;;;;;;;6.50;4.10;;;17.80;91.00;;;;;;4882273;29;20053;-89
2023/08/18 05:38:19;;;;;;;7.57;4.55;;;17.90;91.00;;;;;;4885537;29;20051;-88
2023/08/18 05:40:52;;;;;;;9.02;4.50;;;17.90;91.00;;;;;;4885440;29;20049;-89
2023/08/18 05:43:19;;;;;;;7.57;4.30;;;17.90;90.90;;;;;;4885682;29;20124;-89
2023/08/18 05:45:48;;;;;;;6.60;4.03;;;18.00;90.90;;;;;;4884124;29;20045;-90
2023/08/18 05:48:16;;;;;;;7.22;4.50;;;18.00;90.90;;;;;;4882204;29;20049;-89
2023/08/18 05:50:43;;;;;;;7.80;4.40;;;18.10;91.10;;;;;;4882132;29;20075;-89
2023/08/18 05:53:10;;;;;;;6.90;4.38;;;18.20;90.80;;;;;;4881974;29;20056;-88
2023/08/18 05:55:37;;;;;;;8.88;4.88;;;18.20;90.80;;;;;;4881906;29;20049;-89
2023/08/18 05:58:05;;;;;;;6.85;4.05;;;18.20;90.80;;;;;;4881366;29;20053;-86
2023/08/18 06:00:33;;;;;;;8.45;4.13;;;18.20;90.70;;;;;;4881863;29;20063;-86
2023/08/18 06:03:00;;;;;;;7.22;3.67;;;18.20;90.70;;;;;;4897571;29;20056;-86
2023/08/18 06:05:28;;;;;;;7.97;4.10;;;18.30;90.70;;;;;;4880608;29;20048;-88
2023/08/18 06:08:03;;;;;;;9.07;4.30;;;18.30;90.70;;;;;;4884810;29;20494;-87
2023/08/18 06:10:33;;;;;;;6.70;3.50;;;18.40;90.60;;;;;;4884371;29;20139;-86
2023/08/18 06:13:03;;;;;;;7.75;4.85;;;18.40;90.60;;;;;;4896717;29;20077;-88
2023/08/18 06:15:30;;;;;;;10.52;5.85;;;18.40;90.60;;;;;;4884615;29;20508;-90
2023/08/18 06:17:57;;;;;;;10.52;5.20;;;18.40;90.60;;;;;;4900437;29;20505;-89
2023/08/18 06:20:38;;;;;;;5.55;3.63;;;18.40;90.70;;;;;;4912626;29;20056;-89
2023/08/18 06:23:33;;;;;;;6.35;3.88;;;18.40;90.60;;;;;;4898349;29;20075;-88
2023/08/18 06:26:03;;;;;;;7.60;3.75;;;18.40;90.60;;;;;;4887617;29;20497;-89
2023/08/18 06:28:31;;;;;;;6.50;3.88;;;18.50;90.60;;;;;;4887275;29;20540;-87
2023/08/18 06:31:05;;;;;;;8.38;4.30;;;18.60;90.50;;;;;;4924255;29;20491;-88
2023/08/18 06:33:34;;;;;;;7.57;4.15;;;18.70;90.50;;;;;;4902880;29;20044;-88
2023/08/18 06:36:02;;;;;;;9.57;4.75;;;18.70;90.40;;;;;;4918596;29;20048;-88
2023/08/18 06:38:33;;;;;;;6.55;3.90;;;18.70;90.40;;;;;;4902654;29;20150;-88
2023/08/18 06:41:00;;;;;;;7.47;4.57;;;18.80;90.40;;;;;;4903983;29;20489;-89
2023/08/18 06:43:27;;;;;;;6.10;3.60;;;18.80;90.40;;;;;;4927726;29;20056;-88
2023/08/18 06:45:55;;;;;;;8.10;4.50;;;18.80;90.30;;;;;;4899231;29;20055;-88
2023/08/18 06:48:25;;;;;;;6.25;4.00;;;18.90;90.30;;;;;;4902450;29;20099;-87
2023/08/18 06:50:53;;;;;;;6.07;3.90;;;18.90;90.20;;;;;;4885710;29;20056;-87
2023/08/18 06:53:20;;;;;;;6.55;4.20;;;19.00;90.20;;;;;;4902519;29;20051;-89
2023/08/18 06:55:47;;;;;;;7.97;4.05;;;19.10;90.20;;;;;;4903177;29;20053;-88
2023/08/18 06:58:30;;;;;;;6.80;4.10;;;19.20;90.10;;;;;;4878835;29;20048;-88
2023/08/18 07:00:58;;;;;;;7.65;4.55;;;19.20;90.00;;;;;;4902565;29;20055;-90
2023/08/18 07:03:27;;;;;;;9.38;5.10;;;19.30;90.00;;;;;;4918461;29;20044;-89
2023/08/18 07:05:57;;;;;;;7.32;4.25;;;19.30;90.00;;;;;;4903899;29;20139;-90
2023/08/18 07:08:27;;;;;;;6.20;3.45;;;19.20;90.00;;;;;;4873136;29;20044;-90
2023/08/18 07:10:57;;;;;;;7.05;4.00;;;19.20;90.00;;;;;;4888713;29;20055;-86
2023/08/18 07:13:24;;;;;;;7.65;3.85;;;19.30;90.00;;;;;;4904483;29;20099;-87
2023/08/18 07:15:52;;;;;;;6.45;3.80;;;19.30;89.90;;;;;;4903476;29;20049;-87
2023/08/18 07:18:25;;;;;;;6.60;3.95;;;19.40;90.00;;;;;;4902502;29;20048;-90
2023/08/18 07:20:57;;;;;;;6.85;3.72;;;19.50;89.80;;;;;;4912411;29;20057;-87
2023/08/18 07:23:25;;;;;;;6.93;3.72;;;19.50;89.70;;;;;;4914621;29;20048;-88
2023/08/18 07:25:53;;;;;;;6.05;3.50;;;19.60;89.60;;;;;;4910373;29;20048;-88
2023/08/18 07:28:20;;;;;;;7.55;4.22;;;19.60;89.40;;;;;;4917073;29;20044;-91
2023/08/18 07:30:50;;;;;;;6.28;3.22;;;19.70;89.30;;;;;;4885288;29;20048;-89
2023/08/18 07:33:36;;;;;;;5.75;3.35;;;19.70;89.20;;;;;;4919770;29;20056;-88
2023/08/18 07:36:04;;;;;;;7.53;3.88;;;19.80;89.10;;;;;;4893155;29;20135;-88
2023/08/18 07:38:34;;;;;;;6.85;3.85;;;19.90;89.10;;;;;;4899804;29;20140;-90
2023/08/18 07:41:05;;;;;;;5.90;4.03;;;19.90;89.00;;;;;;4895822;29;20044;-89
2023/08/18 07:43:34;;;;;;;5.50;3.92;;;19.90;88.90;;;;;;4915865;29;20048;-89
2023/08/18 07:46:03;;;;;;;6.60;4.10;;;20.00;88.90;;;;;;4913040;29;20068;-89
2023/08/18 07:48:30;;;;;;;5.07;3.35;;;20.10;88.70;;;;;;4887369;29;20040;-92
2023/08/18 07:51:00;;;;;;;6.07;3.70;;;20.20;88.60;;;;;;4902019;29;20044;-89
2023/08/18 07:53:28;;;;;;;6.18;4.00;;;20.20;88.40;;;;;;4885509;29;20079;-89
2023/08/18 07:55:56;;;;;;;6.03;3.15;;;20.40;88.20;;;;;;4885138;29;20052;-90
2023/08/18 07:58:24;;;;;;;5.85;3.60;;;20.40;88.00;;;;;;4866638;29;20071;-88
2023/08/18 08:00:51;;;;;;;5.57;3.50;;;20.40;88.00;;;;;;4879902;29;20056;-90
2023/08/18 08:03:21;;;;;;;5.88;3.72;;;20.50;88.10;;;;;;4900449;29;20453;-88
2023/08/18 08:05:50;;;;;;;5.47;3.53;;;20.50;87.90;;;;;;4900330;29;20053;-88
2023/08/18 08:08:18;;;;;;;5.60;3.72;;;20.50;88.00;;;;;;4915826;29;20100;-88
2023/08/18 08:10:45;;;;;;;6.45;3.60;;;20.50;88.00;;;;;;4915915;29;20044;-88
2023/08/18 08:13:12;;;;;;;6.85;3.53;;;20.60;87.80;;;;;;4899993;29;20540;-87
2023/08/18 08:15:42;;;;;;;5.95;3.60;;;20.80;87.70;;;;;;4915930;29;20488;-85
2023/08/18 08:18:09;;;;;;;4.45;2.75;;;20.80;87.30;;;;;;4913739;29;20056;-85
2023/08/18 08:20:41;;;;;;;5.72;3.22;;;20.80;87.40;;;;;;4856742;29;1174607;-87
2023/08/18 08:23:11;;;;;;;5.75;3.85;;;20.80;87.60;;;;;;4882539;29;20139;-91
2023/08/18 08:25:43;;;;;;;5.93;4.15;;;20.70;87.50;;;;;;4882936;29;20144;-88
2023/08/18 08:28:13;;;;;;;5.47;3.33;;;20.80;87.60;;;;;;4866306;29;20048;-89
2023/08/18 08:30:44;;;;;;;4.88;2.80;;;20.80;87.50;;;;;;4854361;29;20071;-88
2023/08/18 08:33:12;;;;;;;4.05;2.45;;;20.90;87.30;;;;;;4885175;29;20059;-87
2023/08/18 08:35:43;;;;;;;5.18;3.28;;;21.00;87.10;;;;;;4853017;29;20049;-88
2023/08/18 08:38:10;;;;;;;5.90;3.50;;;21.10;87.00;;;;;;4893811;29;20132;-88
2023/08/18 08:40:39;;;;;;;6.55;4.20;;;21.00;87.10;;;;;;4885810;29;20078;-88
2023/08/18 08:43:06;;;;;;;6.07;3.70;;;21.10;87.10;;;;;;4870582;29;20045;-90
2023/08/18 08:45:34;;;;;;;5.68;3.65;;;21.20;87.00;;;;;;4901561;29;20052;-91
2023/08/18 08:48:11;;;;;;;6.22;3.80;;;21.20;86.70;;;;;;4885616;29;20118;-88
2023/08/18 08:50:42;;;;;;;6.32;3.30;;;21.30;86.80;;;;;;4857908;29;20053;-91
2023/08/18 08:53:14;;;;;;;6.05;3.78;;;21.30;86.80;;;;;;4870663;29;20045;-88
2023/08/18 08:55:44;;;;;;;6.97;4.00;;;21.30;86.70;;;;;;4885750;29;20048;-87
2023/08/18 08:58:13;;;;;;;5.33;3.33;;;21.30;86.50;;;;;;4885548;29;20080;-87
2023/08/18 09:00:44;;;;;;;6.75;3.90;;;21.40;86.60;;;;;;4886410;29;20050;-87
2023/08/18 09:03:14;;;;;;;5.43;3.45;;;21.50;86.50;;;;;;4886291;29;20049;-88
2023/08/18 09:05:41;;;;;;;4.60;3.25;;;21.60;86.30;;;;;;4885533;29;20116;-88
2023/08/18 09:08:09;;;;;;;5.20;3.00;;;21.60;86.10;;;;;;4870635;29;20580;-90
2023/08/18 09:10:39;;;;;;;4.38;2.90;;;21.70;86.00;;;;;;4887678;29;20048;-87
2023/08/18 09:13:07;;;;;;;5.65;3.13;;;21.70;85.90;;;;;;4884833;29;20131;-87
2023/08/18 09:15:34;;;;;;;5.50;3.63;;;21.80;85.80;;;;;;4900090;29;20052;-87
2023/08/18 09:18:04;;;;;;;5.47;2.80;;;21.80;85.70;;;;;;4869661;29;20127;-96
2023/08/18 09:20:34;;;;;;;4.75;3.05;;;21.90;85.40;;;;;;4902677;29;20060;-92
2023/08/18 09:23:07;;;;;;;4.57;3.17;;;22.00;85.20;;;;;;4902881;29;20075;-92
2023/08/18 09:25:51;;;;;;;4.25;2.42;;;22.10;85.10;;;;;;4915238;29;20157;-89
2023/08/18 09:28:22;;;;;;;5.50;3.00;;;22.20;85.00;;;;;;4885667;29;20382;-90
2023/08/18 09:30:52;;;;;;;5.35;3.47;;;22.40;84.70;;;;;;4913594;29;20048;-88
2023/08/18 09:33:27;;;;;;;4.95;2.83;;;22.50;84.40;;;;;;4904418;29;20048;-89
2023/08/18 09:36:12;;;;;;;5.88;3.40;;;22.60;84.20;;;;;;4904731;29;20050;-87
2023/08/18 09:38:50;;;;;;;4.20;2.72;;;22.60;84.00;;;;;;4903781;29;20063;-86
2023/08/18 09:41:20;;;;;;;4.63;2.50;;;22.80;83.80;;;;;;4903676;29;20090;-84
2023/08/18 09:43:54;;;;;;;4.70;3.13;;;22.80;83.60;;;;;;4913409;29;20052;-87
2023/08/18 09:46:39;;;;;;;3.70;2.45;;;22.90;83.60;;;;;;4880225;29;20476;-87
2023/08/18 09:49:12;;;;;;;4.13;2.55;;;22.90;83.50;;;;;;4902710;29;20389;-86
2023/08/18 09:51:46;;;;;;;5.85;3.92;;;22.90;83.50;;;;;;4903906;29;20048;-86
2023/08/18 09:54:19;;;;;;;4.68;2.95;;;22.80;83.50;;;;;;4902551;29;20067;-86
2023/08/18 09:57:34;;;;;;;3.25;2.30;;;22.80;83.60;;;;;;4919707;29;20058;-92
2023/08/18 10:00:07;;;;;;;5.25;3.35;;;22.80;83.60;;;;;;4919643;29;20092;-88
2023/08/18 10:03:02;;;;;;;3.92;2.60;;;22.90;83.40;;;;;;4891343;29;20041;-93
2023/08/18 10:05:58;;;;;;;4.43;2.80;;;22.90;83.30;;;;;;4881302;29;20087;-92
2023/08/18 10:09:09;;;;;;;4.15;2.83;;;22.90;83.90;;;;;;4882233;29;20052;-90
2023/08/18 10:12:04;;;;;;;4.90;3.35;;;23.00;83.10;;;;;;4879226;29;20127;-89
2023/08/18 10:14:51;;;;;;;;;;;;;;;;;;;;;
2023/08/18 10:18:38;;;;;;;;;;;;;;;;;;;;;
2023/08/18 10:21:40;;;;;;;5.25;3.63;;;23.30;82.30;;;;;;4884566;29;20075;-90
2023/08/18 10:28:20;;;;;;;4.22;2.72;;;23.50;81.90;;;;;;4844864;29;20050;-93
2023/08/18 10:31:09;;;;;;;;;;;;;;;;;;;;;
2023/08/18 10:34:01;;;;;;;4.03;2.80;;;24.10;80.90;;;;;;4828588;29;20090;-85
2023/08/18 10:36:31;;;;;;;4.95;3.10;;;24.30;80.20;;;;;;4857017;29;20053;-86
2023/08/18 10:39:25;;;;;;;6.28;3.28;;;24.60;79.60;;;;;;4867927;29;20053;-88
2023/08/18 10:42:12;;;;;;;5.00;2.95;;;24.70;79.10;;;;;;4868945;29;20175;-90
2023/08/18 10:45:04;;;;;;;4.07;2.28;;;24.90;78.70;;;;;;4871038;29;20053;-87
2023/08/18 10:47:33;;;;;;;4.20;2.58;;;25.10;78.30;;;;;;4879049;29;20053;-86
2023/08/18 10:50:05;;;;;;;4.68;3.35;;;25.30;77.90;;;;;;4899202;29;20045;-86
2023/08/18 10:52:32;;;;;;;;;;;25.40;77.60;;;;;;4883263;29;20053;-86
2023/08/18 10:54:59;;;;;;;3.65;2.60;;;25.50;77.40;;;;;;4899177;29;19951;-86
2023/08/18 10:57:29;;;;;;;4.47;3.35;;;25.60;77.30;;;;;;4907279;29;20113;-87
2023/08/18 10:59:56;;;;;;;3.95;2.58;;;25.80;77.00;;;;;;4909101;29;20053;-86
2023/08/18 11:02:24;;;;;;;4.35;2.45;;;26.10;76.50;;;;;;4879874;29;20045;-89
2023/08/18 11:04:52;;;;;;;6.10;3.42;;;26.20;76.00;;;;;;4893885;29;20052;-84
2023/08/18 11:07:22;;;;;;;4.53;3.00;;;26.30;75.80;;;;;;4882784;29;20048;-87
2023/08/18 11:09:50;;;;;;;4.63;3.33;;;26.30;75.60;;;;;;4883847;29;20493;-85
2023/08/18 11:12:18;;;;;;;5.63;3.40;;;26.30;75.50;;;;;;4866420;29;20627;-84
2023/08/18 11:15:32;;;;;;;4.68;2.88;;;26.10;75.70;;;;;;4888261;29;20137;-96
2023/08/18 11:18:17;;;;;;;4.00;3.00;;;25.60;76.80;;;;;;4857939;29;20060;-90
2023/08/18 11:20:49;;;;;;;4.00;2.60;;;25.20;78.20;;;;;;4903246;29;20483;-85
2023/08/18 11:23:19;;;;;;;;;;;25.00;78.70;;;;;;4901275;29;20048;-86
2023/08/18 11:26:05;;;;;;;5.50;4.07;;;24.90;79.30;;;;;;4913692;29;19938;-86
2023/08/18 11:28:34;;;;;;;;;;;24.90;79.70;;;;;;4908998;29;20068;-90
2023/08/18 11:31:08;;;;;;;5.00;3.58;;;25.50;78.90;;;;;;4907185;29;19934;-87
2023/08/18 11:33:37;;;;;;;5.82;4.18;;;26.10;77.40;;;;;;4916441;29;20099;-88
2023/08/18 11:36:05;;;;;;;5.13;3.53;;;26.60;76.20;;;;;;4917682;29;20048;-88
2023/08/18 11:38:40;;;;;;;5.20;3.47;;;26.90;75.30;;;;;;4902151;29;20547;-90
2023/08/18 11:41:15;;;;;;;4.32;3.03;;;27.10;74.70;;;;;;4912121;29;20052;-88
2023/08/18 11:44:03;;;;;;;4.10;3.10;;;27.30;74.20;;;;;;4883054;29;20124;-84
2023/08/18 11:46:41;;;;;;;5.10;3.67;;;27.40;73.90;;;;;;4901154;29;20046;-83
2023/08/18 11:49:35;;;;;;;5.53;3.78;;;27.60;73.60;;;;;;4887427;29;20056;-84
2023/08/18 11:52:07;;;;;;;5.90;4.10;;;27.70;73.20;;;;;;4917025;29;20477;-90
2023/08/18 11:54:36;;;;;;;4.63;3.22;;;27.70;73.30;;;;;;4898911;29;20144;-92
2023/08/18 11:57:15;;;;;;;3.97;3.08;;;27.80;73.20;;;;;;4883508;29;20048;-91
2023/08/18 11:59:51;;;;;;;3.47;2.08;;;27.90;73.00;;;;;;4901908;29;20056;-94
2023/08/18 12:02:33;;;;;;;;;;;;;;;;;;;;;
2023/08/18 12:05:17;;;;;;;3.78;2.65;;;28.20;72.50;;;;;;4901106;29;20597;-90
2023/08/18 12:08:11;;;;;;;5.53;3.88;;;28.20;72.50;;;;;;4917530;29;20052;-91
2023/08/18 12:10:54;;;;;;;3.63;2.60;;;28.30;72.50;;;;;;4885062;29;20048;-89
2023/08/18 12:13:30;;;;;;;3.55;2.80;;;28.20;72.70;;;;;;4889251;29;20044;-87
2023/08/18 12:15:59;;;;;;;4.47;2.88;;;27.80;73.30;;;;;;4868010;29;20060;-89
2023/08/18 12:18:29;;;;;;;3.55;2.60;;;27.40;74.30;;;;;;4898071;29;20128;-92
2023/08/18 12:21:01;;;;;;;4.05;2.85;;;27.00;75.30;;;;;;4885940;29;20060;-95
2023/08/18 12:23:28;;;;;;;3.75;2.72;;;26.80;76.00;;;;;;4886284;29;20095;-89
2023/08/18 12:29:47;;;;;;;5.18;2.97;;;26.40;77.00;;;;;;4900445;29;20072;-88
2023/08/18 12:32:14;;;;;;;3.67;2.70;;;26.20;77.60;;;;;;4900661;29;20071;-85
2023/08/18 12:34:43;;;;;;;3.47;2.50;;;26.20;77.70;;;;;;4902833;29;20079;-88
2023/08/18 12:37:10;;;;;;;4.65;3.33;;;26.10;77.70;;;;;;4900803;29;20044;-85
2023/08/18 12:39:39;;;;;;;4.50;3.35;;;26.10;77.70;;;;;;4884385;29;20059;-85
2023/08/18 12:42:06;;;;;;;3.20;2.33;;;26.10;77.60;;;;;;4884616;29;20044;-84
2023/08/18 12:44:33;;;;;;;4.00;3.10;;;26.10;77.60;;;;;;4888613;29;20055;-83
2023/08/18 12:47:11;;;;;;;4.00;2.78;;;26.10;77.60;;;;;;4884814;29;20055;-84
2023/08/18 12:49:45;;;;;;;4.47;3.65;;;26.00;77.50;;;;;;4900714;29;20531;-84
2023/08/18 12:52:16;;;;;;;4.28;3.22;;;26.00;77.50;;;;;;4888662;29;20113;-87
2023/08/18 12:55:07;;;;;;;4.22;2.70;;;25.80;77.70;;;;;;4887270;29;20040;-86
2023/08/18 12:57:45;;;;;;;;;;;;;;;;;;;;;
2023/08/18 13:05:07;;;;;;;3.47;2.47;;;25.80;77.50;;;;;;4917164;29;20376;-88
2023/08/18 13:07:37;;;;;;;2.58;1.95;;;25.90;77.70;;;;;;4916119;29;20100;-88
2023/08/18 13:10:16;;;;;;;4.20;2.63;;;25.90;77.50;;;;;;4899818;29;20051;-89
2023/08/18 13:13:14;;;;;;;3.13;2.45;;;25.90;77.50;;;;;;4913999;29;20108;-89
2023/08/18 13:15:54;;;;;;;2.60;1.98;;;25.90;77.50;;;;;;4904033;29;20040;-84
2023/08/18 13:18:35;;;;;;;3.60;2.50;;;25.90;77.60;;;;;;4900226;29;20458;-87
2023/08/18 13:21:41;;;;;;;3.25;2.42;;;26.00;77.50;;;;;;4875197;29;20075;-88
2023/08/18 13:24:43;;;;;;;2.95;2.35;;;26.00;77.50;;;;;;4866454;29;20044;-88
2023/08/18 13:27:14;;;;;;;4.07;2.25;;;26.10;77.40;;;;;;4867172;29;20041;-90
2023/08/18 13:29:42;;;;;;;3.30;2.30;;;26.10;77.50;;;;;;4894154;29;20503;-90